createdAt,value
2016-05-31T00:00:42.406Z,93.73
2016-05-31T00:01:42.392Z,93.83
2016-05-31T00:02:42.380Z,93.93
2016-05-31T00:03:42.383Z,94.12
2016-05-31T00:04:42.369Z,94.4
2016-05-31T00:05:42.372Z,94.21
2016-05-31T00:06:42.344Z,94.21
2016-05-31T00:07:43.096Z,94.59
2016-05-31T00:08:42.333Z,94.31
2016-05-31T00:09:42.164Z,94.31
2016-05-31T00:10:42.292Z,94.59
2016-05-31T00:11:42.294Z,94.5
2016-05-31T00:12:42.266Z,94.4
2016-05-31T00:13:42.268Z,94.4
2016-05-31T00:14:42.256Z,94.59
2016-05-31T00:15:42.243Z,94.5
2016-05-31T00:16:42.246Z,94.31
2016-05-31T00:17:42.232Z,94.31
2016-05-31T00:18:42.203Z,94.69
2016-05-31T00:19:42.223Z,94.5
2016-05-31T00:20:42.194Z,94.12
2016-05-31T00:21:42.228Z,94.21
2016-05-31T00:22:42.808Z,94.21
2016-05-31T00:23:42.155Z,94.98
2016-05-31T00:24:42.141Z,95.26
2016-05-31T00:25:42.129Z,95.17
2016-05-31T00:26:42.131Z,95.07
2016-05-31T00:27:42.119Z,95.26
2016-05-31T00:28:42.105Z,95.17
2016-05-31T00:29:42.093Z,94.98
2016-05-31T00:30:42.080Z,94.79
2016-05-31T00:31:41.911Z,95.17
2016-05-31T00:32:42.054Z,95.17
2016-05-31T00:33:41.900Z,94.93
2016-05-31T00:34:42.044Z,95.17
2016-05-31T00:35:42.031Z,95.26
2016-05-31T00:36:41.846Z,94.98
2016-05-31T00:37:42.005Z,94.59
2016-05-31T00:38:41.835Z,94.79
2016-05-31T00:39:41.995Z,94.89
2016-05-31T00:40:41.966Z,94.79
2016-05-31T00:41:41.953Z,94.5
2016-05-31T00:42:41.956Z,94.4
2016-05-31T00:43:41.927Z,94.59
2016-05-31T00:44:41.930Z,94.98
2016-05-31T00:45:41.901Z,94.89
2016-05-31T00:46:41.904Z,94.59
2016-05-31T00:47:41.891Z,94.64
2016-05-31T00:48:41.879Z,94.74
2016-05-31T00:49:41.866Z,94.74
2016-05-31T00:50:41.853Z,94.55
2016-05-31T00:51:41.839Z,94.64
2016-05-31T00:52:41.671Z,94.64
2016-05-31T00:53:41.814Z,94.64
2016-05-31T00:54:41.801Z,95.12
2016-05-31T00:55:41.819Z,94.84
2016-05-31T00:56:41.619Z,95.22
2016-05-31T00:57:41.778Z,95.22
2016-05-31T00:58:41.764Z,95.31
2016-05-31T00:59:41.752Z,95.22
2016-05-31T01:00:41.598Z,95.12
2016-05-31T01:01:41.725Z,95.22
2016-05-31T01:02:41.728Z,94.84
2016-05-31T01:03:41.700Z,95.12
2016-05-31T01:04:41.703Z,94.93
2016-05-31T01:05:41.689Z,95.12
2016-05-31T01:06:41.692Z,95.22
2016-05-31T01:07:41.664Z,95.7
2016-05-31T01:08:41.854Z,95.51
2016-05-31T01:09:41.482Z,95.51
2016-05-31T01:10:41.625Z,95.7
2016-05-31T01:11:41.612Z,95.7
2016-05-31T01:12:41.615Z,95.51
2016-05-31T01:13:41.586Z,95.79
2016-05-31T01:14:41.588Z,95.12
2016-05-31T01:15:41.560Z,94.17
2016-05-31T01:16:41.563Z,93.59
2016-05-31T01:17:41.550Z,93.35
2016-05-31T01:18:41.599Z,93.16
2016-05-31T01:19:41.368Z,92.92
2016-05-31T01:20:41.526Z,92.68
2016-05-31T01:21:41.498Z,93.06
2016-05-31T01:22:42.173Z,92.68
2016-05-31T01:23:41.534Z,92.97
2016-05-31T01:24:41.491Z,92.68
2016-05-31T01:25:41.478Z,92.2
2016-05-31T01:26:41.481Z,91.91
2016-05-31T01:27:41.436Z,92.39
2016-05-31T01:28:41.298Z,92.2
2016-05-31T01:29:41.411Z,92.35
2016-05-31T01:30:41.242Z,92.01
2016-05-31T01:31:41.384Z,92.01
2016-05-31T01:32:41.387Z,92.1
2016-05-31T01:33:41.374Z,92.49
2016-05-31T01:34:41.393Z,92.25
2016-05-31T01:35:41.333Z,92.06
2016-05-31T01:36:41.351Z,92.06
2016-05-31T01:37:41.339Z,92.15
2016-05-31T01:38:41.153Z,92.15
2016-05-31T01:39:41.297Z,91.67
2016-05-31T01:40:41.283Z,92.15
2016-05-31T01:41:41.271Z,91.29
2016-05-31T01:42:41.257Z,91.58
2016-05-31T01:43:41.260Z,90.81
2016-05-31T01:44:41.232Z,91.39
2016-05-31T01:45:41.235Z,90.81
2016-05-31T01:46:41.221Z,91.1
2016-05-31T01:47:41.209Z,91.19
2016-05-31T01:48:41.196Z,90.53
2016-05-31T01:49:41.027Z,91
2016-05-31T01:50:41.170Z,90.91
2016-05-31T01:51:41.173Z,91.77
2016-05-31T01:52:42.004Z,91.29
2016-05-31T01:53:41.147Z,91.29
2016-05-31T01:54:40.962Z,92.06
2016-05-31T01:55:41.121Z,91.96
2016-05-31T01:56:41.109Z,91.96
2016-05-31T01:57:41.095Z,92.3
2016-05-31T01:58:41.082Z,93.07
2016-05-31T01:59:41.069Z,92.78
2016-05-31T02:00:41.056Z,92.49
2016-05-31T02:01:40.887Z,92.49
2016-05-31T02:02:41.031Z,93.54
2016-05-31T02:03:41.017Z,93.16
2016-05-31T02:04:41.005Z,93.74
2016-05-31T02:05:41.007Z,93.54
2016-05-31T02:06:40.979Z,93.83
2016-05-31T02:07:40.825Z,93.93
2016-05-31T02:08:40.812Z,94.5
2016-05-31T02:09:40.955Z,94.5
2016-05-31T02:10:40.943Z,94.07
2016-05-31T02:11:40.930Z,94.6
2016-05-31T02:12:40.761Z,94.74
2016-05-31T02:13:40.904Z,94.55
2016-05-31T02:14:40.891Z,94.84
2016-05-31T02:15:40.894Z,95.22
2016-05-31T02:16:40.880Z,95.03
2016-05-31T02:17:40.868Z,95.22
2016-05-31T02:18:40.840Z,95.22
2016-05-31T02:19:40.671Z,94.84
2016-05-31T02:20:40.813Z,95.22
2016-05-31T02:21:40.816Z,95.79
2016-05-31T02:22:40.818Z,95.51
2016-05-31T02:23:40.790Z,95.61
2016-05-31T02:24:40.777Z,95.7
2016-05-31T02:25:40.765Z,95.51
2016-05-31T02:26:40.752Z,95.89
2016-05-31T02:27:40.739Z,96.27
2016-05-31T02:28:40.742Z,95.7
2016-05-31T02:29:40.713Z,96.56
2016-05-31T02:30:40.559Z,96.47
2016-05-31T02:31:40.718Z,96.56
2016-05-31T02:32:40.673Z,96.47
2016-05-31T02:33:40.676Z,96.94
2016-05-31T02:34:40.664Z,96.94
2016-05-31T02:35:40.636Z,97.04
2016-05-31T02:36:40.638Z,96.94
2016-05-31T02:37:41.328Z,96.84
2016-05-31T02:38:40.611Z,96.94
2016-05-31T02:39:40.583Z,97.23
2016-05-31T02:40:40.586Z,97.33
2016-05-31T02:41:40.572Z,97.04
2016-05-31T02:42:40.560Z,96.56
2016-05-31T02:43:40.547Z,96.37
2016-05-31T02:44:40.535Z,95.98
2016-05-31T02:45:40.521Z,95.51
2016-05-31T02:46:40.352Z,95.12
2016-05-31T02:47:40.338Z,95.22
2016-05-31T02:48:40.482Z,94.65
2016-05-31T02:49:40.469Z,94.65
2016-05-31T02:50:40.457Z,94.31
2016-05-31T02:51:40.444Z,94.31
2016-05-31T02:52:40.446Z,94.31
2016-05-31T02:53:40.449Z,94.21
2016-05-31T02:54:40.404Z,94.31
2016-05-31T02:55:40.251Z,94.5
2016-05-31T02:56:40.379Z,94.69
2016-05-31T02:57:40.366Z,93.64
2016-05-31T02:58:40.368Z,93.26
2016-05-31T02:59:40.356Z,93.79
2016-05-31T03:00:40.342Z,93.83
2016-05-31T03:01:40.331Z,94.02
2016-05-31T03:02:40.317Z,93.64
2016-05-31T03:03:40.304Z,94.26
2016-05-31T03:04:40.306Z,94.45
2016-05-31T03:05:40.278Z,94.45
2016-05-31T03:06:40.297Z,94.5
2016-05-31T03:07:40.267Z,93.59
2016-05-31T03:08:40.568Z,93.4
2016-05-31T03:09:40.445Z,91.77
2016-05-31T03:10:40.230Z,92.25
2016-05-31T03:11:40.060Z,91.3
2016-05-31T03:12:40.202Z,90.34
2016-05-31T03:13:40.191Z,90.77
2016-05-31T03:14:40.177Z,90.48
2016-05-31T03:15:40.164Z,89.81
2016-05-31T03:16:40.152Z,90.39
2016-05-31T03:17:39.982Z,90.39
2016-05-31T03:18:40.126Z,90.39
2016-05-31T03:19:40.113Z,90.86
2016-05-31T03:20:40.099Z,91.15
2016-05-31T03:21:40.087Z,90.58
2016-05-31T03:22:41.012Z,90.77
2016-05-31T03:23:40.061Z,91.05
2016-05-31T03:24:40.048Z,91.15
2016-05-31T03:25:39.941Z,91.25
2016-05-31T03:26:40.023Z,91.72
2016-05-31T03:27:40.009Z,90.77
2016-05-31T03:28:39.995Z,91.82
2016-05-31T03:29:39.999Z,91.92
2016-05-31T03:30:39.986Z,92.3
2016-05-31T03:31:39.989Z,91.82
2016-05-31T03:32:39.976Z,92.21
2016-05-31T03:33:39.947Z,92.11
2016-05-31T03:34:39.934Z,92.87
2016-05-31T03:35:39.922Z,92.49
2016-05-31T03:36:39.909Z,92.78
2016-05-31T03:37:39.911Z,92.68
2016-05-31T03:38:40.023Z,92.68
2016-05-31T03:39:39.870Z,92.68
2016-05-31T03:40:39.856Z,93.16
2016-05-31T03:41:39.844Z,93.45
2016-05-31T03:42:39.846Z,94.21
2016-05-31T03:43:39.818Z,93.98
2016-05-31T03:44:39.805Z,94.5
2016-05-31T03:45:39.807Z,94.21
2016-05-31T03:46:39.795Z,94.21
2016-05-31T03:47:39.782Z,94.4
2016-05-31T03:48:39.768Z,94.21
2016-05-31T03:49:39.772Z,94.21
2016-05-31T03:50:39.743Z,94.69
2016-05-31T03:51:39.729Z,94.21
2016-05-31T03:52:39.718Z,93.74
2016-05-31T03:53:39.548Z,93.54
2016-05-31T03:54:39.691Z,93.64
2016-05-31T03:55:39.694Z,93.35
2016-05-31T03:56:39.665Z,93.45
2016-05-31T03:57:39.652Z,93.26
2016-05-31T03:58:39.655Z,93.26
2016-05-31T03:59:39.642Z,92.78
2016-05-31T04:00:39.629Z,93.26
2016-05-31T04:01:39.616Z,93.16
2016-05-31T04:02:39.588Z,92.58
2016-05-31T04:03:39.590Z,92.68
2016-05-31T04:04:39.592Z,92.78
2016-05-31T04:05:39.565Z,92.58
2016-05-31T04:06:39.551Z,92.78
2016-05-31T04:07:39.553Z,92.78
2016-05-31T04:08:39.603Z,93.26
2016-05-31T04:09:39.514Z,93.16
2016-05-31T04:10:39.516Z,93.54
2016-05-31T04:11:39.518Z,93.45
2016-05-31T04:12:39.490Z,93.83
2016-05-31T04:13:39.477Z,94.69
2016-05-31T04:14:39.463Z,94.31
2016-05-31T04:15:39.450Z,94.4
2016-05-31T04:16:39.438Z,94.02
2016-05-31T04:17:39.425Z,94.31
2016-05-31T04:18:39.412Z,94.31
2016-05-31T04:19:39.399Z,94.02
2016-05-31T04:20:39.386Z,94.69
2016-05-31T04:21:39.373Z,95.17
2016-05-31T04:22:40.173Z,94.89
2016-05-31T04:23:39.660Z,95.17
2016-05-31T04:24:39.350Z,94.5
2016-05-31T04:25:39.181Z,94.69
2016-05-31T04:26:39.309Z,94.69
2016-05-31T04:27:39.187Z,94.89
2016-05-31T04:28:39.298Z,95.27
2016-05-31T04:29:39.128Z,94.69
2016-05-31T04:30:39.287Z,94.6
2016-05-31T04:31:39.260Z,94.69
2016-05-31T04:32:39.246Z,94.4
2016-05-31T04:33:39.233Z,94.02
2016-05-31T04:34:39.221Z,94.5
2016-05-31T04:35:39.208Z,94.79
2016-05-31T04:36:39.053Z,94.69
2016-05-31T04:37:40.198Z,94.4
2016-05-31T04:38:39.434Z,94.31
2016-05-31T04:39:39.015Z,93.64
2016-05-31T04:40:39.158Z,93.54
2016-05-31T04:41:39.146Z,93.45
2016-05-31T04:42:39.148Z,93.74
2016-05-31T04:43:39.119Z,93.93
2016-05-31T04:44:39.107Z,93.26
2016-05-31T04:45:39.094Z,93.45
2016-05-31T04:46:39.097Z,93.83
2016-05-31T04:47:39.083Z,93.45
2016-05-31T04:48:39.071Z,94.12
2016-05-31T04:49:39.042Z,93.35
2016-05-31T04:50:38.873Z,93.54
2016-05-31T04:51:39.032Z,92.58
2016-05-31T04:52:38.863Z,91.96
2016-05-31T04:53:39.007Z,92.25
2016-05-31T04:54:38.993Z,92.35
2016-05-31T04:55:38.980Z,92.25
2016-05-31T04:56:38.810Z,92.35
2016-05-31T04:57:38.954Z,90.62
2016-05-31T04:58:38.941Z,91
2016-05-31T04:59:38.772Z,90.62
2016-05-31T05:00:38.776Z,90.53
2016-05-31T05:01:38.746Z,90.62
2016-05-31T05:02:38.889Z,90.23
2016-05-31T05:03:38.877Z,90.53
2016-05-31T05:04:38.879Z,90.67
2016-05-31T05:05:38.867Z,90.67
2016-05-31T05:06:38.869Z,91.14
2016-05-31T05:07:38.701Z,89.71
2016-05-31T05:08:38.843Z,89.23
2016-05-31T05:09:39.017Z,89.04
2016-05-31T05:10:38.802Z,89.32
2016-05-31T05:11:38.804Z,88.46
2016-05-31T05:12:38.636Z,89.13
2016-05-31T05:13:38.778Z,89.42
2016-05-31T05:14:38.766Z,89.61
2016-05-31T05:15:38.753Z,89.42
2016-05-31T05:16:38.739Z,89.13
2016-05-31T05:17:38.742Z,89.71
2016-05-31T05:18:38.713Z,89.61
2016-05-31T05:19:38.967Z,89.51
2016-05-31T05:20:38.704Z,89.8
2016-05-31T05:21:38.691Z,90.42
2016-05-31T05:22:38.677Z,90.61
2016-05-31T05:23:38.837Z,90.33
2016-05-31T05:24:38.668Z,90.42
2016-05-31T05:25:38.498Z,89.9
2016-05-31T05:26:38.641Z,90.28
2016-05-31T05:27:38.613Z,90.38
2016-05-31T05:28:38.616Z,90
2016-05-31T05:29:38.446Z,90.38
2016-05-31T05:30:38.434Z,90.38
2016-05-31T05:31:38.593Z,90.76
2016-05-31T05:32:38.611Z,90.76
2016-05-31T05:33:38.551Z,91.53
2016-05-31T05:34:38.554Z,91.24
2016-05-31T05:35:38.541Z,91.14
2016-05-31T05:36:38.543Z,90.57
2016-05-31T05:37:38.640Z,91.24
2016-05-31T05:38:38.517Z,90.76
2016-05-31T05:39:38.489Z,91.05
2016-05-31T05:40:38.320Z,91.24
2016-05-31T05:41:38.322Z,90.86
2016-05-31T05:42:38.295Z,90.86
2016-05-31T05:43:38.453Z,90.38
2016-05-31T05:44:38.440Z,90.23
2016-05-31T05:45:38.427Z,90.9
2016-05-31T05:46:38.414Z,89.56
2016-05-31T05:47:38.402Z,89.18
2016-05-31T05:48:38.388Z,89.47
2016-05-31T05:49:38.391Z,89.85
2016-05-31T05:50:38.377Z,90.23
2016-05-31T05:51:38.397Z,90.52
2016-05-31T05:52:38.368Z,89.99
2016-05-31T05:53:38.338Z,89.75
2016-05-31T05:54:38.327Z,90.37
2016-05-31T05:55:38.313Z,90.47
2016-05-31T05:56:38.316Z,89.32
2016-05-31T05:57:38.312Z,89.79
2016-05-31T05:58:38.326Z,87.59
2016-05-31T05:59:38.339Z,88.45
2016-05-31T06:00:38.353Z,88.55
2016-05-31T06:01:38.382Z,88.55
2016-05-31T06:02:38.390Z,89.89
2016-05-31T06:03:38.386Z,89.32
2016-05-31T06:04:38.383Z,88.98
2016-05-31T06:05:38.380Z,87.73
2016-05-31T06:06:38.392Z,87.4
2016-05-31T06:07:38.402Z,87.35
2016-05-31T06:08:38.377Z,87.05
2016-05-31T06:09:38.368Z,87.92
2016-05-31T06:10:38.374Z,87.92
2016-05-31T06:11:38.365Z,86.38
2016-05-31T06:12:38.354Z,86.48
2016-05-31T06:13:38.341Z,86.19
2016-05-31T06:14:38.346Z,86.48
2016-05-31T06:15:38.319Z,84.56
2016-05-31T06:16:38.166Z,84.75
2016-05-31T06:17:38.311Z,85.14
2016-05-31T06:18:38.298Z,84.75
2016-05-31T06:19:38.285Z,84.37
2016-05-31T06:20:38.288Z,84.27
2016-05-31T06:21:38.276Z,83.98
2016-05-31T06:22:39.248Z,84.89
2016-05-31T06:23:38.563Z,84.7
2016-05-31T06:24:38.252Z,83.93
2016-05-31T06:25:38.241Z,84.22
2016-05-31T06:26:38.227Z,83.64
2016-05-31T06:27:38.215Z,83.74
2016-05-31T06:28:38.217Z,84.8
2016-05-31T06:29:38.204Z,85.08
2016-05-31T06:30:38.191Z,85.85
2016-05-31T06:31:38.178Z,84.8
2016-05-31T06:32:38.181Z,82.78
2016-05-31T06:33:38.167Z,81.43
2016-05-31T06:34:38.155Z,81.92
2016-05-31T06:35:38.142Z,81.05
2016-05-31T06:36:38.145Z,81.09
2016-05-31T06:37:37.991Z,80.99
2016-05-31T06:38:38.745Z,79.61
2016-05-31T06:39:38.106Z,78.84
2016-05-31T06:40:38.092Z,79.61
2016-05-31T06:41:38.095Z,79.13
2016-05-31T06:42:38.083Z,79.03
2016-05-31T06:43:38.070Z,78.94
2016-05-31T06:44:38.056Z,77.59
2016-05-31T06:45:38.059Z,75.57
2016-05-31T06:46:38.046Z,77.21
2016-05-31T06:47:38.050Z,77.4
2016-05-31T06:48:38.036Z,75.96
2016-05-31T06:49:38.024Z,76.15
2016-05-31T06:50:38.011Z,76.82
2016-05-31T06:51:37.997Z,75.2
2016-05-31T06:52:38.703Z,75.77
2016-05-31T06:53:38.018Z,75.04
2016-05-31T06:54:37.974Z,77.15
2016-05-31T06:55:37.961Z,75.9
2016-05-31T06:56:37.793Z,75.23
2016-05-31T06:57:37.935Z,73.63
2016-05-31T06:58:37.938Z,73.15
2016-05-31T06:59:37.926Z,72.38
2016-05-31T07:00:37.929Z,73.25
2016-05-31T07:01:37.759Z,73.63
2016-05-31T07:02:37.902Z,72.67
2016-05-31T07:03:37.889Z,73.83
2016-05-31T07:04:37.892Z,73.25
2016-05-31T07:05:37.879Z,73.73
2016-05-31T07:06:37.865Z,74.69
2016-05-31T07:07:37.712Z,74.3
2016-05-31T07:08:38.059Z,74.17
2016-05-31T07:09:38.046Z,74.94
2016-05-31T07:10:37.830Z,74.94
2016-05-31T07:11:37.833Z,75.32
2016-05-31T07:12:37.819Z,75.13
2016-05-31T07:13:37.807Z,75.23
2016-05-31T07:14:37.809Z,75.23
2016-05-31T07:15:37.797Z,75.81
2016-05-31T07:16:37.783Z,75.42
2016-05-31T07:17:37.770Z,76.57
2016-05-31T07:18:37.757Z,75.23
2016-05-31T07:19:37.761Z,74.27
2016-05-31T07:20:37.591Z,74.75
2016-05-31T07:21:37.735Z,75.42
2016-05-31T07:22:37.737Z,75.81
2016-05-31T07:23:37.569Z,75.42
2016-05-31T07:24:37.711Z,74.37
2016-05-31T07:25:37.713Z,75.23
2016-05-31T07:26:37.701Z,73.6
2016-05-31T07:27:37.688Z,72.38
2016-05-31T07:28:37.675Z,72
2016-05-31T07:29:37.662Z,71.33
2016-05-31T07:30:37.509Z,72.29
2016-05-31T07:31:37.652Z,73.35
2016-05-31T07:32:37.640Z,71.52
2016-05-31T07:33:37.642Z,70.75
2016-05-31T07:34:37.629Z,70.46
2016-05-31T07:35:37.475Z,69.34
2016-05-31T07:36:37.446Z,66.39
2016-05-31T07:37:38.403Z,60.9
2016-05-31T07:38:37.609Z,57.42
2016-05-31T07:39:37.595Z,57.54
2016-05-31T07:40:37.582Z,61.06
2016-05-31T07:41:37.585Z,62.06
2016-05-31T07:42:37.572Z,62.41
2016-05-31T07:43:37.559Z,63.12
2016-05-31T07:44:37.561Z,63.95
2016-05-31T07:45:37.565Z,65.75
2016-05-31T07:46:37.537Z,64.59
2016-05-31T07:47:37.539Z,60.52
2016-05-31T07:48:37.525Z,55.23
2016-05-31T07:49:37.528Z,56.39
2016-05-31T07:50:37.516Z,54.07
2016-05-31T07:51:37.519Z,51.03
2016-05-31T07:52:37.505Z,52.19
2016-05-31T07:53:37.524Z,54.29
2016-05-31T07:54:37.494Z,57.04
2016-05-31T07:55:37.483Z,56.98
2016-05-31T07:56:37.500Z,58.04
2016-05-31T07:57:37.332Z,59.2
2016-05-31T07:58:37.474Z,61.58
2016-05-31T07:59:37.462Z,62.25
2016-05-31T08:00:37.465Z,60.97
2016-05-31T08:01:37.296Z,62.57
2016-05-31T08:02:37.454Z,62
2016-05-31T08:03:37.440Z,59.52
2016-05-31T08:04:37.429Z,55.56
2016-05-31T08:05:37.432Z,51.2
2016-05-31T08:06:37.418Z,51.71
2016-05-31T08:07:37.264Z,54.17
2016-05-31T08:08:37.611Z,55.85
2016-05-31T08:09:37.409Z,57.27
2016-05-31T08:10:37.398Z,58.17
2016-05-31T08:11:37.401Z,59.43
2016-05-31T08:12:37.387Z,59.3
2016-05-31T08:13:37.389Z,60.07
2016-05-31T08:14:37.378Z,59.3
2016-05-31T08:15:37.380Z,59.84
2016-05-31T08:16:37.383Z,59.07
2016-05-31T08:17:37.353Z,57.89
2016-05-31T08:18:37.356Z,58.2
2016-05-31T08:19:37.186Z,59.14
2016-05-31T08:20:37.346Z,58.34
2016-05-31T08:21:37.192Z,57.28
2016-05-31T08:22:37.320Z,57.45
2016-05-31T08:23:37.338Z,58.02
2016-05-31T08:24:37.310Z,58.89
2016-05-31T08:25:37.313Z,57.83
2016-05-31T08:26:37.300Z,58.4
2016-05-31T08:27:37.287Z,58.95
2016-05-31T08:28:37.290Z,56.58
2016-05-31T08:29:37.276Z,55.89
2016-05-31T08:30:37.124Z,54.09
2016-05-31T08:31:37.266Z,51.8
2016-05-31T08:32:37.269Z,50.67
2016-05-31T08:33:37.256Z,48.66
2016-05-31T08:34:37.243Z,47.33
2016-05-31T08:35:37.246Z,44.7
2016-05-31T08:36:37.232Z,43.75
2016-05-31T08:37:37.471Z,42.32
2016-05-31T08:38:37.238Z,41.2
2016-05-31T08:39:37.257Z,41.68
2016-05-31T08:40:37.228Z,41.27
2016-05-31T08:41:37.215Z,43.09
2016-05-31T08:42:37.234Z,45.57
2016-05-31T08:43:37.064Z,46.61
2016-05-31T08:44:37.208Z,44.84
2016-05-31T08:45:37.211Z,43.15
2016-05-31T08:46:37.213Z,41.74
2016-05-31T08:47:37.200Z,41.37
2016-05-31T08:48:37.203Z,40.99
2016-05-31T08:49:37.206Z,42.46
2016-05-31T08:50:37.208Z,42.24
2016-05-31T08:51:37.195Z,41.86
2016-05-31T08:52:37.041Z,42.17
2016-05-31T08:53:37.200Z,43.79
2016-05-31T08:54:37.203Z,43.21
2016-05-31T08:55:37.191Z,42.41
2016-05-31T08:56:37.193Z,45.81
2016-05-31T08:57:37.039Z,44.16
2016-05-31T08:58:37.042Z,46.25
2016-05-31T08:59:37.185Z,46.51
2016-05-31T09:00:37.204Z,48.49
2016-05-31T09:01:37.207Z,50.01
2016-05-31T09:02:37.193Z,49.55
2016-05-31T09:03:37.196Z,51.27
2016-05-31T09:04:37.183Z,51.46
2016-05-31T09:05:37.185Z,51.46
2016-05-31T09:06:37.173Z,50.5
2016-05-31T09:07:37.176Z,51.17
2016-05-31T09:08:37.179Z,50.79
2016-05-31T09:09:37.165Z,51.53
2016-05-31T09:10:37.168Z,52.98
2016-05-31T09:11:37.170Z,53.15
2016-05-31T09:12:37.158Z,54.4
2016-05-31T09:13:37.161Z,54.18
2016-05-31T09:14:37.148Z,53.92
2016-05-31T09:15:36.994Z,52.76
2016-05-31T09:16:37.153Z,51
2016-05-31T09:17:37.139Z,54.47
2016-05-31T09:18:37.143Z,55.15
2016-05-31T09:19:37.130Z,56.14
2016-05-31T09:20:37.133Z,56.62
2016-05-31T09:21:37.135Z,54.02
2016-05-31T09:22:37.670Z,54.47
2016-05-31T09:23:37.530Z,53.05
2016-05-31T09:24:37.112Z,52.19
2016-05-31T09:25:37.099Z,50.67
2016-05-31T09:26:37.102Z,50.4
2016-05-31T09:27:37.088Z,51.17
2016-05-31T09:28:37.092Z,49.55
2016-05-31T09:29:37.094Z,46.05
2016-05-31T09:30:37.082Z,46.05
2016-05-31T09:31:37.084Z,48.01
2016-05-31T09:32:37.072Z,46.87
2016-05-31T09:33:37.073Z,45.03
2016-05-31T09:34:37.061Z,46.29
2016-05-31T09:35:37.063Z,48.27
2016-05-31T09:36:37.065Z,48.16
2016-05-31T09:37:37.601Z,49.29
2016-05-31T09:38:37.119Z,49.85
2016-05-31T09:39:37.059Z,51.37
2016-05-31T09:40:37.062Z,50.38
2016-05-31T09:41:37.064Z,50.69
2016-05-31T09:42:37.051Z,50.59
2016-05-31T09:43:37.053Z,50.52
2016-05-31T09:44:37.040Z,50.33
2016-05-31T09:45:37.043Z,51.39
2016-05-31T09:46:37.031Z,50.81
2016-05-31T09:47:37.033Z,50.23
2016-05-31T09:48:36.880Z,50.62
2016-05-31T09:49:37.023Z,51.01
2016-05-31T09:53:00.219Z,49.85
2016-05-31T09:54:00.205Z,51.01
2016-05-31T09:55:00.208Z,52.36
2016-05-31T09:56:00.195Z,50.71
2016-05-31T09:57:00.198Z,49.17
2016-05-31T09:58:00.200Z,50.23
2016-05-31T09:59:00.188Z,52.07
2016-05-31T10:00:00.190Z,50.13
2016-05-31T10:01:00.194Z,50.55
2016-05-31T10:02:00.211Z,50.65
2016-05-31T10:03:00.183Z,49.49
2016-05-31T10:04:00.029Z,50.45
2016-05-31T10:05:00.204Z,49.68
2016-05-31T10:06:00.237Z,49.49
2016-05-31T10:07:00.179Z,49.77
2016-05-31T10:08:00.024Z,49.19
2016-05-31T10:09:00.027Z,50.69
2016-05-31T10:10:00.170Z,50.69
2016-05-31T10:11:00.174Z,53.01
2016-05-31T10:12:00.176Z,51.85
2016-05-31T10:13:00.163Z,51.85
2016-05-31T10:14:00.197Z,53.13
2016-05-31T10:15:00.012Z,51.49
2016-05-31T10:16:00.155Z,51.42
2016-05-31T10:17:00.159Z,51.23
2016-05-31T10:18:00.161Z,49.19
2016-05-31T10:19:00.164Z,48.18
2016-05-31T10:19:59.994Z,48.27
2016-05-31T10:21:00.154Z,49.29
2016-05-31T10:22:00.156Z,50.71
2016-05-31T10:23:00.674Z,51.87
2016-05-31T10:24:00.146Z,51.29
2016-05-31T10:25:00.148Z,51.2
2016-05-31T10:26:00.135Z,52.14
2016-05-31T10:27:00.122Z,52.62
2016-05-31T10:28:00.141Z,52.89
2016-05-31T10:29:00.128Z,53.47
2016-05-31T10:30:00.130Z,51.63
2016-05-31T10:31:00.133Z,51.34
2016-05-31T10:32:00.121Z,52.57
2016-05-31T10:33:00.123Z,53.05
2016-05-31T10:34:00.313Z,54.21
2016-05-31T10:35:00.113Z,55.18
2016-05-31T10:36:00.099Z,55.01
2016-05-31T10:37:00.087Z,54.62
2016-05-31T10:38:00.121Z,54.94
2016-05-31T10:39:00.093Z,53.78
2016-05-31T10:40:00.095Z,53.59
2016-05-31T10:40:59.926Z,51.87
2016-05-31T10:41:59.913Z,52.84
2016-05-31T10:43:00.071Z,51.68
2016-05-31T10:44:00.074Z,49.65
2016-05-31T10:45:00.062Z,51.01
2016-05-31T10:46:00.064Z,50.81
2016-05-31T10:47:00.051Z,50.91
2016-05-31T10:48:00.054Z,50.23
2016-05-31T10:49:00.056Z,51.39
2016-05-31T10:50:00.045Z,50.93
2016-05-31T10:51:00.047Z,50.93
2016-05-31T10:52:00.050Z,50.86
2016-05-31T10:52:59.880Z,49.54
2016-05-31T10:54:00.100Z,48.37
2016-05-31T10:55:00.026Z,49.22
2016-05-31T10:56:00.028Z,49.7
2016-05-31T10:57:00.031Z,49.51
2016-05-31T10:58:00.019Z,46.92
2016-05-31T10:59:00.036Z,48.86
2016-05-31T11:00:00.024Z,49.44
2016-05-31T11:01:00.027Z,49.41
2016-05-31T11:02:00.044Z,49.41
2016-05-31T11:03:00.016Z,50.91
2016-05-31T11:04:00.003Z,51.1
2016-05-31T11:05:00.005Z,51.27
2016-05-31T11:05:59.993Z,50.71
2016-05-31T11:06:59.996Z,51.46
2016-05-31T11:07:59.857Z,51.95
2016-05-31T11:09:00.017Z,51.1
2016-05-31T11:10:00.254Z,51.49
2016-05-31T11:11:00.006Z,51.78
2016-05-31T11:12:00.024Z,51.87
2016-05-31T11:12:59.996Z,51.59
2016-05-31T11:13:59.983Z,51.03
2016-05-31T11:14:59.987Z,50.67
2016-05-31T11:15:59.989Z,49.39
2016-05-31T11:16:59.976Z,49.97
2016-05-31T11:17:59.979Z,51.32
2016-05-31T11:18:59.981Z,50.65
2016-05-31T11:19:59.968Z,50.93
2016-05-31T11:20:59.970Z,51.13
2016-05-31T11:21:59.958Z,50.65
2016-05-31T11:23:00.008Z,52.89
2016-05-31T11:24:00.089Z,50.57
2016-05-31T11:24:59.966Z,52.51
2016-05-31T11:25:59.953Z,51.32
2016-05-31T11:26:59.956Z,50.57
2016-05-31T11:27:59.989Z,49.7
2016-05-31T11:28:59.945Z,50.74
2016-05-31T11:29:59.948Z,50.65
2016-05-31T11:30:59.794Z,49.6
2016-05-31T11:31:59.953Z,50.93
2016-05-31T11:32:59.971Z,50.26
2016-05-31T11:33:59.944Z,49.6
2016-05-31T11:34:59.930Z,49.51
2016-05-31T11:35:59.933Z,51.73
2016-05-31T11:36:59.920Z,50.86
2016-05-31T11:38:00.048Z,48.37
2016-05-31T11:38:59.768Z,48.08
2016-05-31T11:39:59.928Z,49.44
2016-05-31T11:40:59.916Z,51.25
2016-05-31T11:41:59.918Z,49.82
2016-05-31T11:43:00.279Z,49.82
2016-05-31T11:43:59.924Z,50.48
2016-05-31T11:44:59.910Z,51.66
2016-05-31T11:45:59.913Z,49.24
2016-05-31T11:46:59.916Z,48.42
2016-05-31T11:47:59.918Z,49.51
2016-05-31T11:48:59.905Z,47.5
2016-05-31T11:49:59.923Z,44.4
2016-05-31T11:50:59.911Z,45.73
2016-05-31T11:51:59.742Z,46.99
2016-05-31T11:53:00.979Z,43.13
2016-05-31T11:54:00.075Z,43.54
2016-05-31T11:54:59.906Z,43.82
2016-05-31T11:55:59.939Z,44.3
2016-05-31T11:56:59.942Z,47.4
2016-05-31T11:57:59.930Z,44.78
2016-05-31T11:58:59.933Z,46.45
2016-05-31T11:59:59.919Z,47.02
2016-05-31T12:00:59.906Z,46.82
2016-05-31T12:01:59.908Z,44.1
2016-05-31T12:02:59.911Z,43.43
2016-05-31T12:03:59.915Z,45.56
2016-05-31T12:04:59.902Z,46.26
2016-05-31T12:05:59.764Z,45.7
2016-05-31T12:06:59.766Z,42.61
2016-05-31T12:07:59.753Z,40.99
2016-05-31T12:08:59.913Z,41.38
2016-05-31T12:09:59.931Z,40.48
2016-05-31T12:10:59.762Z,43.37
2016-05-31T12:11:59.952Z,43.16
2016-05-31T12:12:59.954Z,43.45
2016-05-31T12:13:59.785Z,43.62
2016-05-31T12:14:59.929Z,44.3
2016-05-31T12:15:59.931Z,45.15
2016-05-31T12:16:59.934Z,45.44
2016-05-31T12:17:59.921Z,46.12
2016-05-31T12:18:59.923Z,47.06
2016-05-31T12:19:59.770Z,46.19
2016-05-31T12:20:59.945Z,47.14
2016-05-31T12:21:59.932Z,46.36
2016-05-31T12:22:59.935Z,47.52
2016-05-31T12:23:59.922Z,46.46
2016-05-31T12:24:59.924Z,46.66
2016-05-31T12:25:59.770Z,47.99
2016-05-31T12:26:59.930Z,49.54
2016-05-31T12:27:59.933Z,47.21
2016-05-31T12:28:59.919Z,46.83
2016-05-31T12:29:59.938Z,47.33
2016-05-31T12:30:59.925Z,48.39
2016-05-31T12:31:59.911Z,46.87
2016-05-31T12:32:59.930Z,46.67
2016-05-31T12:33:59.932Z,45.37
2016-05-31T12:34:59.919Z,45.07
2016-05-31T12:35:59.922Z,43.54
2016-05-31T12:36:59.925Z,42.81
2016-05-31T12:38:00.335Z,43.41
2016-05-31T12:38:59.930Z,37.9
2016-05-31T12:39:59.902Z,38.89
2016-05-31T12:40:59.920Z,40.52
2016-05-31T12:41:59.923Z,40.62
2016-05-31T12:42:59.769Z,41.01
2016-05-31T12:43:59.913Z,40.13
2016-05-31T12:44:59.915Z,40.64
2016-05-31T12:45:59.918Z,38.52
2016-05-31T12:46:59.936Z,39.47
2016-05-31T12:47:59.923Z,41.61
2016-05-31T12:48:59.927Z,38.5
2016-05-31T12:49:59.945Z,39.26
2016-05-31T12:50:59.948Z,40.81
2016-05-31T12:51:59.934Z,38.79
2016-05-31T12:53:00.671Z,35.21
2016-05-31T12:54:00.345Z,35.7
2016-05-31T12:54:59.958Z,39.39
2016-05-31T12:55:59.945Z,35.71
2016-05-31T12:56:59.964Z,32.62
2016-05-31T12:57:59.950Z,36.1